createdAt,value
2018-06-04T00:02:43.690Z,4.28
2018-06-04T00:05:11.892Z,4.50
2018-06-04T00:07:40.113Z,4.72
2018-06-04T00:10:08.307Z,4.40
2018-06-04T00:12:36.522Z,4.53
2018-06-04T00:15:04.755Z,4.05
2018-06-04T00:17:32.989Z,3.92
2018-06-04T00:20:01.201Z,4.85
2018-06-04T00:22:29.439Z,4.60
2018-06-04T00:24:57.610Z,3.85
2018-06-04T00:27:25.787Z,4.25
2018-06-04T00:29:54.002Z,4.58
2018-06-04T00:32:22.288Z,4.28
2018-06-04T00:34:50.412Z,4.53
2018-06-04T00:37:18.594Z,4.40
2018-06-04T00:39:46.785Z,4.92
2018-06-04T00:42:14.996Z,4.45
2018-06-04T00:44:43.161Z,3.95
2018-06-04T00:47:11.369Z,4.80
2018-06-04T00:49:39.552Z,4.75
2018-06-04T00:52:07.760Z,4.08
2018-06-04T00:54:35.997Z,4.67
2018-06-04T00:57:04.308Z,4.65
2018-06-04T00:59:32.494Z,4.65
2018-06-04T01:19:19.573Z,4.78
2018-06-04T01:21:47.774Z,5.22
2018-06-04T01:24:16.006Z,4.92
2018-06-04T01:26:44.175Z,4.55
2018-06-04T01:29:12.465Z,5.22
2018-06-04T01:31:40.629Z,4.80
2018-06-04T01:34:08.848Z,4.65
2018-06-04T01:36:37.048Z,4.53
2018-06-04T01:39:07.418Z,4.83
2018-06-04T01:41:35.629Z,5.00
2018-06-04T01:44:03.952Z,4.62
2018-06-04T01:46:31.921Z,4.70
2018-06-04T01:49:00.125Z,5.03
2018-06-04T01:51:28.306Z,4.87
2018-06-04T01:53:56.545Z,4.92
2018-06-04T01:56:24.775Z,5.22
2018-06-04T01:58:52.987Z,5.42
2018-06-04T02:01:21.256Z,5.42
2018-06-04T02:03:49.477Z,5.00
2018-06-04T02:06:17.709Z,5.30
2018-06-04T02:08:45.912Z,6.03
2018-06-04T02:11:13.913Z,5.47
2018-06-04T02:13:42.195Z,4.87
2018-06-04T02:16:10.406Z,5.30
2018-06-04T02:18:38.680Z,5.03
2018-06-04T02:21:06.890Z,4.95
2018-06-04T02:23:35.137Z,4.70
2018-06-04T02:26:03.376Z,5.12
2018-06-04T02:28:31.587Z,5.40
2018-06-04T02:30:59.825Z,5.40
2018-06-04T02:33:28.084Z,5.28
2018-06-04T02:35:56.329Z,5.12
2018-06-04T02:38:24.540Z,5.30
2018-06-04T02:40:52.759Z,5.53
2018-06-04T02:43:21.029Z,4.97
2018-06-04T02:45:49.490Z,5.37
2018-06-04T02:48:17.724Z,4.83
2018-06-04T02:50:45.946Z,4.62
2018-06-04T02:53:14.163Z,4.97
2018-06-04T02:55:42.438Z,5.00
2018-06-04T02:58:10.643Z,4.80
2018-06-04T03:00:38.909Z,5.17
2018-06-04T03:03:07.155Z,5.00
2018-06-04T03:05:35.424Z,5.42
2018-06-04T03:08:03.652Z,5.05
2018-06-04T03:10:31.867Z,4.47
2018-06-04T03:13:00.164Z,4.75
2018-06-04T03:15:28.428Z,5.22
2018-06-04T03:17:56.673Z,5.12
2018-06-04T03:20:24.944Z,5.72
2018-06-04T03:22:53.141Z,5.08
2018-06-04T03:25:21.373Z,5.12
2018-06-04T03:27:49.584Z,5.47
2018-06-04T03:30:17.834Z,5.12
2018-06-04T03:32:46.050Z,5.60
2018-06-04T03:35:14.412Z,5.05
2018-06-04T03:37:42.657Z,5.00
2018-06-04T03:40:10.857Z,4.72
2018-06-04T03:42:39.112Z,5.40
2018-06-04T03:45:07.324Z,5.67
2018-06-04T03:47:35.525Z,5.40
2018-06-04T03:50:03.774Z,5.35
2018-06-04T03:52:32.012Z,6.12
2018-06-04T03:55:00.246Z,6.55
2018-06-04T03:57:28.454Z,6.17
2018-06-04T03:59:56.664Z,5.62
2018-06-04T04:02:24.923Z,5.83
2018-06-04T04:04:53.205Z,6.87
2018-06-04T04:07:23.468Z,6.25
2018-06-04T04:09:51.684Z,5.85
2018-06-04T04:12:19.943Z,6.00
2018-06-04T04:14:48.177Z,6.50
2018-06-04T04:17:16.427Z,6.50
2018-06-04T04:19:44.659Z,6.33
2018-06-04T04:22:12.903Z,6.55
2018-06-04T04:24:41.171Z,6.72
2018-06-04T04:27:09.139Z,6.58
2018-06-04T04:29:37.389Z,6.67
2018-06-04T04:32:05.635Z,7.10
2018-06-04T04:34:33.852Z,6.45
2018-06-04T04:37:02.139Z,7.28
2018-06-04T04:39:30.395Z,6.70
2018-06-04T04:41:58.727Z,7.15
2018-06-04T04:44:26.680Z,6.45
2018-06-04T04:46:55.090Z,6.90
2018-06-04T04:49:23.368Z,7.12
2018-06-04T04:51:51.689Z,7.15
2018-06-04T04:54:19.912Z,6.50
2018-06-04T04:56:48.130Z,6.78
2018-06-04T04:59:17.390Z,5.67
2018-06-04T05:01:45.635Z,5.78
2018-06-04T05:04:13.854Z,6.67
2018-06-04T05:06:42.137Z,6.20
2018-06-04T05:09:10.394Z,6.87
2018-06-04T05:11:38.618Z,6.53
2018-06-04T05:14:06.849Z,6.80
2018-06-04T05:16:35.197Z,6.55
2018-06-04T05:19:03.459Z,6.60
2018-06-04T05:21:31.672Z,6.92
2018-06-04T05:23:59.902Z,7.35
2018-06-04T05:26:28.205Z,7.80
2018-06-04T05:28:56.432Z,7.15
2018-06-04T05:31:25.704Z,7.42
2018-06-04T05:33:53.931Z,7.60
2018-06-04T05:36:22.167Z,6.95
2018-06-04T05:38:50.828Z,7.47
2018-06-04T05:41:19.057Z,7.33
2018-06-04T05:43:47.312Z,8.70
2018-06-04T05:46:15.513Z,7.85
2018-06-04T05:48:43.746Z,8.95
2018-06-04T05:51:11.973Z,8.50
2018-06-04T05:53:40.218Z,8.28
2018-06-04T05:56:08.519Z,8.38
2018-06-04T05:58:36.698Z,9.48
2018-06-04T06:01:04.960Z,9.08
2018-06-04T06:03:33.184Z,10.05
2018-06-04T06:06:01.394Z,10.25
2018-06-04T06:08:29.645Z,10.38
2018-06-04T06:10:57.886Z,9.93
2018-06-04T06:13:26.155Z,9.60
2018-06-04T06:15:54.765Z,10.55
2018-06-04T06:18:23.063Z,10.45
2018-06-04T06:20:51.361Z,10.25
2018-06-04T06:23:19.637Z,10.88
2018-06-04T06:25:47.859Z,10.08
2018-06-04T06:28:16.123Z,10.98
2018-06-04T06:30:44.470Z,10.13
2018-06-04T06:33:12.360Z,11.33
2018-06-04T06:35:40.616Z,10.23
2018-06-04T06:38:08.844Z,10.72
2018-06-04T06:40:37.202Z,11.40
2018-06-04T06:43:05.453Z,10.00
2018-06-04T06:45:33.723Z,10.65
2018-06-04T06:48:01.986Z,12.37
2018-06-04T06:50:30.220Z,11.43
2018-06-04T06:52:58.468Z,11.95
2018-06-04T06:55:27.282Z,10.85
2018-06-04T06:57:55.574Z,10.00
2018-06-04T07:00:23.870Z,12.28
2018-06-04T07:02:52.152Z,11.45
2018-06-04T07:05:20.447Z,11.45
2018-06-04T07:07:48.691Z,10.35
2018-06-04T07:10:16.919Z,10.23
2018-06-04T07:12:45.152Z,10.13
2018-06-04T07:15:13.391Z,11.83
2018-06-04T07:17:41.628Z,12.05
2018-06-04T07:20:09.854Z,10.70
2018-06-04T07:22:38.088Z,11.43
2018-06-04T07:25:06.481Z,10.18
2018-06-04T07:27:34.749Z,11.18
2018-06-04T07:30:03.038Z,13.25
2018-06-04T07:32:31.343Z,10.75
2018-06-04T07:34:59.637Z,11.43
2018-06-04T07:37:28.062Z,11.68
2018-06-04T07:39:56.345Z,11.12
2018-06-04T07:42:24.609Z,10.40
2018-06-04T07:44:55.042Z,12.00
2018-06-04T07:47:23.311Z,12.50
2018-06-04T07:49:51.615Z,10.55
2018-06-04T07:52:19.911Z,10.98
2018-06-04T07:54:48.171Z,11.38
2018-06-04T07:57:16.514Z,10.65
2018-06-04T07:59:44.667Z,11.50
2018-06-04T08:02:12.922Z,10.32
2018-06-04T08:04:41.173Z,9.95
2018-06-04T08:07:09.369Z,9.93
2018-06-04T08:09:37.637Z,8.85
2018-06-04T08:12:05.948Z,9.53
2018-06-04T08:14:34.184Z,9.05
2018-06-04T08:17:02.406Z,10.55
2018-06-04T08:19:30.708Z,9.40
2018-06-04T08:21:58.946Z,8.45
2018-06-04T08:24:27.327Z,9.10
2018-06-04T08:26:55.657Z,9.85
2018-06-04T08:29:24.128Z,9.75
2018-06-04T08:31:52.389Z,8.15
2018-06-04T08:34:20.618Z,8.63
2018-06-04T08:36:48.873Z,9.65
2018-06-04T08:39:17.113Z,10.30
2018-06-04T08:41:46.315Z,8.73
2018-06-04T08:44:14.603Z,9.35
2018-06-04T08:46:42.865Z,10.20
2018-06-04T08:49:11.142Z,9.68
2018-06-04T08:51:39.424Z,9.15
2018-06-04T08:54:07.402Z,10.10
2018-06-04T08:56:35.672Z,9.00
2018-06-04T08:59:03.923Z,10.13
2018-06-04T09:01:32.184Z,10.23
2018-06-04T09:04:00.395Z,10.72
2018-06-04T09:06:28.616Z,9.00
2018-06-04T09:08:56.873Z,10.25
2018-06-04T09:11:25.156Z,9.13
2018-06-04T09:13:53.357Z,8.65
2018-06-04T09:16:21.611Z,10.08
2018-06-04T09:18:49.860Z,10.05
2018-06-04T09:21:18.161Z,10.23
2018-06-04T09:23:46.386Z,8.45
2018-06-04T09:26:14.618Z,9.55
2018-06-04T09:28:42.795Z,8.83
2018-06-04T09:31:11.014Z,9.40
2018-06-04T09:33:39.286Z,8.90
2018-06-04T09:36:07.521Z,9.93
2018-06-04T09:38:35.740Z,9.40
2018-06-04T09:41:04.018Z,10.25
2018-06-04T09:43:32.253Z,10.48
2018-06-04T09:46:00.497Z,9.98
2018-06-04T09:48:28.728Z,9.65
2018-06-04T09:50:56.974Z,11.75
2018-06-04T09:53:25.248Z,10.58
2018-06-04T09:55:53.481Z,12.10
2018-06-04T09:58:21.676Z,11.40
2018-06-04T10:00:49.933Z,13.58
2018-06-04T10:03:18.221Z,12.65
2018-06-04T10:05:46.481Z,13.20
2018-06-04T10:08:14.745Z,12.35
2018-06-04T10:10:44.076Z,13.40
2018-06-04T10:13:18.854Z,11.78
2018-06-04T10:15:47.064Z,12.00
2018-06-04T10:18:15.331Z,11.10
2018-06-04T10:20:43.561Z,11.83
2018-06-04T10:23:11.815Z,10.13
2018-06-04T10:25:40.141Z,11.50
2018-06-04T10:28:08.196Z,11.22
2018-06-04T10:30:36.435Z,11.73
2018-06-04T10:33:04.704Z,10.60
2018-06-04T10:35:33.001Z,12.10
2018-06-04T10:38:01.288Z,10.32
2018-06-04T10:40:29.577Z,9.95
2018-06-04T10:42:57.848Z,11.30
2018-06-04T10:45:27.642Z,11.30
2018-06-04T10:47:55.888Z,10.72
2018-06-04T10:50:24.409Z,10.15
2018-06-04T10:52:52.609Z,11.18
2018-06-04T10:55:20.870Z,13.72
2018-06-04T10:57:49.098Z,12.30
2018-06-04T11:00:17.322Z,10.43
2018-06-04T11:02:45.586Z,10.35
2018-06-04T11:05:13.790Z,10.75
2018-06-04T11:07:42.077Z,10.23
2018-06-04T11:10:10.329Z,10.88
2018-06-04T11:12:39.602Z,10.53
2018-06-04T11:15:07.827Z,10.68
2018-06-04T11:17:36.769Z,9.63
2018-06-04T11:20:05.232Z,10.03
2018-06-04T11:22:33.542Z,9.78
2018-06-04T11:25:01.793Z,8.95
2018-06-04T11:27:30.060Z,8.63
2018-06-04T11:29:58.282Z,8.00
2018-06-04T11:32:26.615Z,8.03
2018-06-04T11:34:54.866Z,8.38
2018-06-04T11:37:23.098Z,8.25
2018-06-04T11:39:51.336Z,7.55
2018-06-04T11:42:19.540Z,7.00
2018-06-04T11:44:48.970Z,7.50
2018-06-04T11:47:17.201Z,7.47
2018-06-04T11:49:45.437Z,7.67
2018-06-04T11:52:13.652Z,7.90
2018-06-04T11:54:41.942Z,6.92
2018-06-04T11:57:09.891Z,6.70
2018-06-04T11:59:38.118Z,6.78
2018-06-04T12:02:06.338Z,7.00
2018-06-04T12:04:34.532Z,6.25
2018-06-04T12:07:02.775Z,6.33
2018-06-04T12:09:31.036Z,6.78
2018-06-04T12:11:59.268Z,7.53
2018-06-04T12:14:27.467Z,6.20
2018-06-04T12:16:55.700Z,6.15
2018-06-04T12:19:23.896Z,6.47
2018-06-04T12:21:52.219Z,6.40
2018-06-04T12:24:20.433Z,6.53
2018-06-04T12:26:48.672Z,6.30
2018-06-04T12:29:16.925Z,5.92
2018-06-04T12:31:45.158Z,6.30
2018-06-04T12:34:13.367Z,5.97
2018-06-04T12:36:42.832Z,5.85
2018-06-04T12:39:11.534Z,5.85
2018-06-04T12:41:39.787Z,5.90
2018-06-04T12:44:07.779Z,5.50
2018-06-04T12:46:36.282Z,5.05
2018-06-04T12:49:04.510Z,5.40
2018-06-04T12:51:32.755Z,5.45
2018-06-04T12:54:00.972Z,5.30
2018-06-04T12:56:29.215Z,5.17
2018-06-04T12:58:57.433Z,5.22
2018-06-04T13:01:25.657Z,5.10
2018-06-04T13:03:54.488Z,5.20
2018-06-04T13:06:22.739Z,4.40
2018-06-04T13:08:51.033Z,4.97
2018-06-04T13:11:19.301Z,4.72
2018-06-04T13:13:47.554Z,5.00
2018-06-04T13:16:15.855Z,4.75
2018-06-04T13:18:45.104Z,4.20
2018-06-04T13:21:13.320Z,4.78
2018-06-04T13:23:41.561Z,4.30
2018-06-04T13:26:09.806Z,4.10
2018-06-04T13:28:38.030Z,4.35
2018-06-04T13:31:06.687Z,4.30
2018-06-04T13:33:35.309Z,4.40
2018-06-04T13:36:04.492Z,4.72
2018-06-04T13:38:32.693Z,4.58
2018-06-04T13:41:00.910Z,4.42
2018-06-04T13:43:29.177Z,4.20
2018-06-04T13:45:57.121Z,4.28
2018-06-04T13:48:25.332Z,3.83
2018-06-04T13:50:53.548Z,4.30
2018-06-04T13:53:21.826Z,4.30
2018-06-04T13:55:50.068Z,4.10
2018-06-04T13:58:18.314Z,4.92
2018-06-04T14:00:46.571Z,4.60
2018-06-04T14:03:14.870Z,3.92
2018-06-04T14:05:43.080Z,3.92
2018-06-04T14:08:11.329Z,4.00
2018-06-04T14:10:39.607Z,3.90
2018-06-04T14:13:07.848Z,3.72
2018-06-04T14:15:36.135Z,4.05
2018-06-04T14:18:04.343Z,4.00
2018-06-04T14:20:32.595Z,3.30
2018-06-04T14:23:00.815Z,3.70
2018-06-04T14:25:29.064Z,3.77
2018-06-04T14:27:57.308Z,3.47
2018-06-04T14:30:25.617Z,3.77
2018-06-04T14:32:53.799Z,3.42
2018-06-04T14:35:23.610Z,3.40
2018-06-04T14:37:51.849Z,4.00
2018-06-04T14:40:31.968Z,3.60
2018-06-04T14:43:00.201Z,3.75
2018-06-04T14:45:29.501Z,3.42
2018-06-04T14:47:57.724Z,3.58
2018-06-04T14:50:28.337Z,3.40
2018-06-04T14:52:56.618Z,3.30
2018-06-04T14:55:27.165Z,3.52
2018-06-04T14:57:55.357Z,3.70
2018-06-04T15:00:25.899Z,3.92
2018-06-04T15:02:54.177Z,4.20
2018-06-04T15:05:22.398Z,3.85
2018-06-04T15:07:50.648Z,3.75
2018-06-04T15:10:22.865Z,3.83
2018-06-04T15:12:51.108Z,3.85
2018-06-04T15:15:20.634Z,3.80
2018-06-04T15:17:48.943Z,3.37
2018-06-04T15:20:17.210Z,3.30
2018-06-04T15:22:45.430Z,3.00
2018-06-04T15:25:13.642Z,3.27
2018-06-04T15:27:41.875Z,3.30
2018-06-04T15:30:10.098Z,3.22
2018-06-04T15:32:38.349Z,3.65
2018-06-04T15:35:06.656Z,3.30
2018-06-04T15:37:34.891Z,3.15
2018-06-04T15:40:03.128Z,3.60
2018-06-04T15:44:51.063Z,3.60
2018-06-04T15:47:19.218Z,3.77
2018-06-04T15:49:47.381Z,3.83
2018-06-04T15:52:15.535Z,3.52
2018-06-04T15:54:43.701Z,3.75
2018-06-04T15:57:11.842Z,3.58
2018-06-04T15:59:40.017Z,3.30
2018-06-04T16:02:08.204Z,3.30
2018-06-04T16:04:36.358Z,3.85
2018-06-04T16:07:04.580Z,3.42
2018-06-04T16:09:32.799Z,3.90
2018-06-04T16:12:00.983Z,4.30
2018-06-04T16:14:29.117Z,3.98
2018-06-04T16:16:57.278Z,3.75
2018-06-04T16:19:25.437Z,3.85
2018-06-04T16:21:53.599Z,4.22
2018-06-04T16:24:21.530Z,4.08
2018-06-04T16:26:49.684Z,4.25
2018-06-04T16:29:17.845Z,4.50
2018-06-04T16:31:46.108Z,4.22
2018-06-04T16:51:33.520Z,5.03
2018-06-04T16:54:01.793Z,5.25
2018-06-04T16:56:29.955Z,5.72
2018-06-04T16:58:58.121Z,5.90
2018-06-04T17:01:26.282Z,5.90
2018-06-04T17:03:54.432Z,6.47
2018-06-04T17:06:23.014Z,5.80
2018-06-04T17:08:51.154Z,5.85
2018-06-04T17:11:19.320Z,5.67
2018-06-04T17:13:47.508Z,5.60
2018-06-04T17:16:15.678Z,5.80
2018-06-04T17:18:43.931Z,5.67
2018-06-04T17:21:12.122Z,5.87
2018-06-04T17:23:40.279Z,6.20
2018-06-04T17:26:08.429Z,6.03
2018-06-04T17:28:36.567Z,6.47
2018-06-04T17:31:04.737Z,6.10
2018-06-04T17:33:32.902Z,6.12
2018-06-04T17:36:01.068Z,5.90
2018-06-04T17:38:29.321Z,5.65
2018-06-04T17:40:57.495Z,6.00
2018-06-04T17:43:25.639Z,6.05
2018-06-04T17:45:53.810Z,5.85
2018-06-04T17:48:21.956Z,5.87
2018-06-04T17:50:50.614Z,6.45
2018-06-04T17:53:18.522Z,6.08
2018-06-04T17:55:46.697Z,6.12
2018-06-04T17:58:14.991Z,6.58
2018-06-04T18:00:43.590Z,6.50
2018-06-04T18:03:12.184Z,5.72
2018-06-04T18:05:40.362Z,5.42
2018-06-04T18:08:08.862Z,5.80
2018-06-04T18:10:37.077Z,6.15
2018-06-04T18:13:05.252Z,5.28
2018-06-04T18:15:33.433Z,5.62
2018-06-04T18:18:01.619Z,5.50
2018-06-04T18:20:29.796Z,5.35
2018-06-04T18:22:57.987Z,5.75
2018-06-04T18:25:26.217Z,5.10
2018-06-04T18:27:54.401Z,6.10
2018-06-04T18:30:24.064Z,5.75
2018-06-04T18:32:52.252Z,5.28
2018-06-04T18:35:20.680Z,5.53
2018-06-04T18:37:49.272Z,5.10
2018-06-04T18:40:17.464Z,5.60
2018-06-04T18:42:45.691Z,5.50
2018-06-04T19:02:32.481Z,5.22
2018-06-04T19:05:00.737Z,5.62
2018-06-04T19:07:29.597Z,5.17
2018-06-04T19:09:57.869Z,5.08
2018-06-04T19:12:26.522Z,5.15
2018-06-04T19:14:54.487Z,5.50
2018-06-04T19:17:22.661Z,5.60
2018-06-04T19:37:10.172Z,5.65
2018-06-04T19:56:59.799Z,5.53
2018-06-04T19:59:28.554Z,5.45
2018-06-04T20:01:57.555Z,5.80
2018-06-04T20:04:26.374Z,5.30
2018-06-04T20:06:55.266Z,5.87
2018-06-04T20:26:43.026Z,5.90
2018-06-04T20:29:11.768Z,5.80
2018-06-04T20:31:40.974Z,6.03
2018-06-04T20:51:28.259Z,6.53
2018-06-04T20:53:57.122Z,6.22
2018-06-04T20:56:25.789Z,6.42
2018-06-04T20:58:54.435Z,6.53
2018-06-04T21:01:23.569Z,6.53
2018-06-04T21:03:53.025Z,6.85
2018-06-04T21:06:21.605Z,6.03
2018-06-04T21:08:51.174Z,6.17
2018-06-04T21:28:39.096Z,6.72
2018-06-04T21:31:07.816Z,6.37
2018-06-04T21:33:36.381Z,6.12
2018-06-04T21:36:05.231Z,6.78
2018-06-04T21:38:34.139Z,6.75
2018-06-04T21:41:02.763Z,6.50
2018-06-04T21:43:31.366Z,6.70
2018-06-04T21:45:59.980Z,6.42
2018-06-04T21:48:29.530Z,6.30
2018-06-04T22:08:17.156Z,3.17
2018-06-04T22:10:47.671Z,3.10
2018-06-04T22:13:16.396Z,3.05
2018-06-04T22:15:45.067Z,3.05
2018-06-04T22:18:14.677Z,2.70
2018-06-04T22:20:43.276Z,2.40
2018-06-04T22:23:12.919Z,2.80
2018-06-04T22:25:42.178Z,2.85
2018-06-04T22:28:10.850Z,2.83
2018-06-04T22:30:40.287Z,3.25
2018-06-04T22:33:10.373Z,3.08
2018-06-04T22:35:39.471Z,3.45
2018-06-04T22:38:08.171Z,2.70
2018-06-04T22:40:37.157Z,3.22
2018-06-04T22:43:06.085Z,3.20
2018-06-04T22:45:35.464Z,3.00
2018-06-04T22:48:05.077Z,3.10
2018-06-04T22:50:33.735Z,3.17
2018-06-04T22:53:03.732Z,2.85
2018-06-04T22:55:32.832Z,2.85
2018-06-04T22:58:01.510Z,2.85
2018-06-04T23:00:34.601Z,3.12
2018-06-04T23:03:04.572Z,3.55
2018-06-04T23:05:33.259Z,3.30
2018-06-04T23:08:01.852Z,3.10
2018-06-04T23:10:31.563Z,3.02
2018-06-04T23:13:00.627Z,3.15
2018-06-04T23:15:30.054Z,3.50
2018-06-04T23:18:00.398Z,3.40
2018-06-04T23:20:28.886Z,3.20
2018-06-04T23:40:16.990Z,3.98
2018-06-04T23:42:45.634Z,3.77
2018-06-04T23:45:14.290Z,3.45
2018-06-04T23:47:43.048Z,3.45
2018-06-04T23:50:11.902Z,3.50
2018-06-04T23:52:41.662Z,3.40
2018-06-04T23:55:11.014Z,3.47
2018-06-04T23:57:39.617Z,4.00
